PWSweather.com
Personal Weather Stations
Station Observations
KOHCLEVE171
Cleveland, OH

Cleveland, OH

Lat: 41.48646164, Lon: -81.46408081

Elevation: 1059

Station Type:

High Low Average
Temperature 25.7°F-3.5°C 15.3°F-9.3°C 20.3°F-6.5°C
Dew Point 24.4°F-4.2°C 7.5°F-13.6°C 14.7°F-9.6°C
Winds 6.7 mph 10.8 kmh Calm Calm 2.0 mph SSE3.2 kmh SSE
Wind Gusts 13.0 mph20.9 kmh -- 3.0 mph4.8 kmh
Humidity 95% 71% 79%
Pressure 30.22 in1023.4 mb 29.90 in1012.5 mb -
Precipitation 0.00 in0.0 mm - -
Hour Temp Dew Point Humidity Winds Wind Gusts Pressure Precip Precip Rate Daily Precip Total
12:04 AM 15.6°F-9.1°C 6.6°F-14.1°C 67% 1.1 mph S1.8 kmh S 3.1 mph5.0 kmh 30.21 in1023.0 mb 0.00 in0.0 mm 0.00 in0.0 mm 0.00 in0.0 mm
12:09 AM 15.6°F-9.1°C 6.6°F-14.1°C 67% 1.8 mph E2.9 kmh E 3.1 mph5.0 kmh 30.21 in1023.0 mb 0.00 in0.0 mm 0.00 in0.0 mm 0.00 in0.0 mm
12:14 AM 15.6°F-9.1°C 6.6°F-14.1°C 67% 2.0 mph E3.2 kmh E 2.7 mph4.3 kmh 30.21 in1023.0 mb 0.00 in0.0 mm 0.00 in0.0 mm 0.00 in0.0 mm
12:19 AM 15.8°F-9.0°C 7.2°F-13.8°C 68% 1.6 mph E2.6 kmh E 2.7 mph4.3 kmh 30.21 in1023.0 mb 0.00 in0.0 mm 0.00 in0.0 mm 0.00 in0.0 mm
12:24 AM 15.8°F-9.0°C 7.2°F-13.8°C 68% 1.1 mph SE1.8 kmh SE 2.2 mph3.5 kmh 30.21 in1023.0 mb 0.00 in0.0 mm 0.00 in0.0 mm 0.00 in0.0 mm
12:29 AM 15.8°F-9.0°C 7.2°F-13.8°C 68% 1.1 mph S1.8 kmh S 1.6 mph2.6 kmh 30.21 in1023.0 mb 0.00 in0.0 mm 0.00 in0.0 mm 0.00 in0.0 mm
12:34 AM 16.0°F-8.9°C 7.5°F-13.6°C 69% 2.0 mph S3.2 kmh S 3.1 mph5.0 kmh 30.21 in1023.0 mb 0.00 in0.0 mm 0.00 in0.0 mm 0.00 in0.0 mm
12:39 AM 15.8°F-9.0°C 7.3°F-13.7°C 69% 1.1 mph NNE1.8 kmh NNE 2.5 mph4.0 kmh 30.21 in1023.0 mb 0.00 in0.0 mm 0.00 in0.0 mm 0.00 in0.0 mm
12:44 AM 15.6°F-9.1°C 7.3°F-13.7°C 69% 1.8 mph SSE2.9 kmh SSE 4.0 mph6.4 kmh 30.21 in1023.0 mb 0.00 in0.0 mm 0.00 in0.0 mm 0.00 in0.0 mm
12:49 AM 15.4°F-9.2°C 7.7°F-13.5°C 71% 1.6 mph SE2.6 kmh SE 2.2 mph3.5 kmh 30.21 in1023.0 mb 0.00 in0.0 mm 0.00 in0.0 mm 0.00 in0.0 mm
12:54 AM 15.6°F-9.1°C 7.9°F-13.4°C 71% 1.3 mph S2.1 kmh S 2.9 mph4.7 kmh 30.21 in1023.0 mb 0.00 in0.0 mm 0.00 in0.0 mm 0.00 in0.0 mm
01:04 AM 15.3°F-9.3°C 7.5°F-13.6°C 71% 2.0 mph E3.2 kmh E 3.6 mph5.8 kmh 30.21 in1023.0 mb 0.00 in0.0 mm 0.00 in0.0 mm 0.00 in0.0 mm
01:09 AM 15.4°F-9.2°C 8.4°F-13.1°C 73% 1.8 mph E2.9 kmh E 2.7 mph4.3 kmh 30.21 in1023.0 mb 0.00 in0.0 mm 0.00 in0.0 mm 0.00 in0.0 mm
01:14 AM 15.4°F-9.2°C 8.4°F-13.1°C 73% 1.1 mph SSE1.8 kmh SSE 2.0 mph3.2 kmh 30.21 in1023.0 mb 0.00 in0.0 mm 0.00 in0.0 mm 0.00 in0.0 mm
01:19 AM 15.6°F-9.1°C 8.4°F-13.1°C 73% 1.8 mph ENE2.9 kmh ENE 3.1 mph5.0 kmh 30.21 in1023.0 mb 0.00 in0.0 mm 0.00 in0.0 mm 0.00 in0.0 mm
01:24 AM 15.6°F-9.1°C 8.8°F-12.9°C 74% 1.3 mph E2.1 kmh E 2.2 mph3.5 kmh 30.21 in1023.0 mb 0.00 in0.0 mm 0.00 in0.0 mm 0.00 in0.0 mm
01:29 AM 15.4°F-9.2°C 8.6°F-13.0°C 74% 1.3 mph ESE2.1 kmh ESE 3.4 mph5.5 kmh 30.21 in1023.0 mb 0.00 in0.0 mm 0.00 in0.0 mm 0.00 in0.0 mm
01:34 AM 15.6°F-9.1°C 8.8°F-12.9°C 74% 1.6 mph SSE2.6 kmh SSE 2.7 mph4.3 kmh 30.21 in1023.0 mb 0.00 in0.0 mm 0.00 in0.0 mm 0.00 in0.0 mm
01:39 AM 15.6°F-9.1°C 8.8°F-12.9°C 74% 1.8 mph SE2.9 kmh SE 4.0 mph6.4 kmh 30.20 in1022.7 mb 0.00 in0.0 mm 0.00 in0.0 mm 0.00 in0.0 mm
01:44 AM 15.6°F-9.1°C 9.1°F-12.7°C 75% 0.9 mph SSE1.4 kmh SSE 2.7 mph4.3 kmh 30.20 in1022.7 mb 0.00 in0.0 mm 0.00 in0.0 mm 0.00 in0.0 mm
01:49 AM 15.6°F-9.1°C 9.1°F-12.7°C 75% 1.3 mph SE2.1 kmh SE 2.5 mph4.0 kmh 30.20 in1022.7 mb 0.00 in0.0 mm 0.00 in0.0 mm 0.00 in0.0 mm
01:54 AM 15.4°F-9.2°C 9.0°F-12.8°C 75% 1.1 mph SE1.8 kmh SE 2.5 mph4.0 kmh 30.20 in1022.7 mb 0.00 in0.0 mm 0.00 in0.0 mm 0.00 in0.0 mm
01:59 AM 15.4°F-9.2°C 9.1°F-12.7°C 76% 1.3 mph SE2.1 kmh SE 2.2 mph3.5 kmh 30.20 in1022.7 mb 0.00 in0.0 mm 0.00 in0.0 mm 0.00 in0.0 mm
02:04 AM 15.6°F-9.1°C 9.3°F-12.6°C 76% 1.6 mph SE2.6 kmh SE 2.5 mph4.0 kmh 30.20 in1022.7 mb 0.00 in0.0 mm 0.00 in0.0 mm 0.00 in0.0 mm
02:09 AM 15.4°F-9.2°C 9.1°F-12.7°C 76% 2.0 mph SSE3.2 kmh SSE 3.6 mph5.8 kmh 30.20 in1022.7 mb 0.00 in0.0 mm 0.00 in0.0 mm 0.00 in0.0 mm
02:14 AM 15.4°F-9.2°C 9.1°F-12.7°C 76% 2.0 mph SE3.2 kmh SE 3.4 mph5.5 kmh 30.20 in1022.7 mb 0.00 in0.0 mm 0.00 in0.0 mm 0.00 in0.0 mm
02:19 AM 15.3°F-9.3°C 9.1°F-12.7°C 76% 1.6 mph SE2.6 kmh SE 2.7 mph4.3 kmh 30.20 in1022.7 mb 0.00 in0.0 mm 0.00 in0.0 mm 0.00 in0.0 mm
02:24 AM 15.3°F-9.3°C 9.1°F-12.7°C 76% 1.1 mph WSW1.8 kmh WSW 1.8 mph2.9 kmh 30.20 in1022.7 mb 0.00 in0.0 mm 0.00 in0.0 mm 0.00 in0.0 mm
02:29 AM 15.4°F-9.2°C 9.9°F-12.3°C 78% 1.8 mph SE2.9 kmh SE 3.1 mph5.0 kmh 30.20 in1022.7 mb 0.00 in0.0 mm 0.00 in0.0 mm 0.00 in0.0 mm
02:34 AM 15.4°F-9.2°C 9.9°F-12.3°C 78% 1.1 mph SE1.8 kmh SE 1.8 mph2.9 kmh 30.20 in1022.7 mb 0.00 in0.0 mm 0.00 in0.0 mm 0.00 in0.0 mm
02:39 AM 15.6°F-9.1°C 10.0°F-12.2°C 78% 1.1 mph SE1.8 kmh SE 2.2 mph3.5 kmh 30.20 in1022.7 mb 0.00 in0.0 mm 0.00 in0.0 mm 0.00 in0.0 mm
02:44 AM 15.4°F-9.2°C 9.9°F-12.3°C 78% 1.3 mph SSE2.1 kmh SSE 2.0 mph3.2 kmh 30.20 in1022.7 mb 0.00 in0.0 mm 0.00 in0.0 mm 0.00 in0.0 mm
02:49 AM 15.6°F-9.1°C 10.2°F-12.1°C 79% 1.6 mph SE2.6 kmh SE 2.9 mph4.7 kmh 30.20 in1022.7 mb 0.00 in0.0 mm 0.00 in0.0 mm 0.00 in0.0 mm
02:54 AM 15.6°F-9.1°C 10.2°F-12.1°C 79% 1.6 mph S2.6 kmh S 2.5 mph4.0 kmh 30.20 in1022.7 mb 0.00 in0.0 mm 0.00 in0.0 mm 0.00 in0.0 mm
02:59 AM 15.6°F-9.1°C 10.2°F-12.1°C 79% 1.3 mph SE2.1 kmh SE 3.6 mph5.8 kmh 30.20 in1022.7 mb 0.00 in0.0 mm 0.00 in0.0 mm 0.00 in0.0 mm
03:04 AM 15.6°F-9.1°C 10.2°F-12.1°C 79% 1.6 mph SE2.6 kmh SE 2.7 mph4.3 kmh 30.20 in1022.7 mb 0.00 in0.0 mm 0.00 in0.0 mm 0.00 in0.0 mm
03:09 AM 15.6°F-9.1°C 10.0°F-12.2°C 78% 1.1 mph SE1.8 kmh SE 2.5 mph4.0 kmh 30.20 in1022.7 mb 0.00 in0.0 mm 0.00 in0.0 mm 0.00 in0.0 mm
03:14 AM 15.4°F-9.2°C 9.9°F-12.3°C 78% 1.6 mph ENE2.6 kmh ENE 2.5 mph4.0 kmh 30.20 in1022.7 mb 0.00 in0.0 mm 0.00 in0.0 mm 0.00 in0.0 mm
03:19 AM 15.3°F-9.3°C 9.9°F-12.3°C 79% 1.3 mph SE2.1 kmh SE 2.7 mph4.3 kmh 30.21 in1023.0 mb 0.00 in0.0 mm 0.00 in0.0 mm 0.00 in0.0 mm
03:24 AM 15.4°F-9.2°C 10.0°F-12.2°C 79% 1.6 mph E2.6 kmh E 2.2 mph3.5 kmh 30.20 in1022.7 mb 0.00 in0.0 mm 0.00 in0.0 mm 0.00 in0.0 mm
03:29 AM 15.6°F-9.1°C 10.2°F-12.1°C 79% 1.6 mph E2.6 kmh E 2.0 mph3.2 kmh 30.21 in1023.0 mb 0.00 in0.0 mm 0.00 in0.0 mm 0.00 in0.0 mm
03:34 AM 15.6°F-9.1°C 10.2°F-12.1°C 79% 1.1 mph SE1.8 kmh SE 2.5 mph4.0 kmh 30.21 in1023.0 mb 0.00 in0.0 mm 0.00 in0.0 mm 0.00 in0.0 mm
03:39 AM 15.6°F-9.1°C 10.6°F-11.9°C 80% 1.6 mph SE2.6 kmh SE 2.9 mph4.7 kmh 30.21 in1023.0 mb 0.00 in0.0 mm 0.00 in0.0 mm 0.00 in0.0 mm
03:44 AM 15.8°F-9.0°C 10.8°F-11.8°C 80% 0.9 mph SSE1.4 kmh SSE 1.6 mph2.6 kmh 30.21 in1023.0 mb 0.00 in0.0 mm 0.00 in0.0 mm 0.00 in0.0 mm
03:49 AM 15.8°F-9.0°C 10.8°F-11.8°C 80% 0.9 mph SE1.4 kmh SE 1.8 mph2.9 kmh 30.21 in1023.0 mb 0.00 in0.0 mm 0.00 in0.0 mm 0.00 in0.0 mm
03:54 AM 15.6°F-9.1°C 10.6°F-11.9°C 80% 1.1 mph SE1.8 kmh SE 2.5 mph4.0 kmh 30.21 in1023.0 mb 0.00 in0.0 mm 0.00 in0.0 mm 0.00 in0.0 mm
03:59 AM 15.4°F-9.2°C 10.4°F-12.0°C 80% 1.1 mph SE1.8 kmh SE 2.5 mph4.0 kmh 30.21 in1023.0 mb 0.00 in0.0 mm 0.00 in0.0 mm 0.00 in0.0 mm
04:04 AM 15.4°F-9.2°C 10.4°F-12.0°C 80% 1.6 mph ENE2.6 kmh ENE 2.2 mph3.5 kmh 30.22 in1023.4 mb 0.00 in0.0 mm 0.00 in0.0 mm 0.00 in0.0 mm
04:09 AM 15.4°F-9.2°C 10.4°F-12.0°C 80% 1.3 mph SE2.1 kmh SE 2.2 mph3.5 kmh 30.21 in1023.0 mb 0.00 in0.0 mm 0.00 in0.0 mm 0.00 in0.0 mm
04:14 AM 15.4°F-9.2°C 10.4°F-12.0°C 80% 1.8 mph S2.9 kmh S 2.9 mph4.7 kmh 30.21 in1023.0 mb 0.00 in0.0 mm 0.00 in0.0 mm 0.00 in0.0 mm
04:19 AM 15.6°F-9.1°C 10.6°F-11.9°C 80% 1.6 mph SE2.6 kmh SE 2.7 mph4.3 kmh 30.21 in1023.0 mb 0.00 in0.0 mm 0.00 in0.0 mm 0.00 in0.0 mm
04:24 AM 15.8°F-9.0°C 10.8°F-11.8°C 80% 2.0 mph SE3.2 kmh SE 2.5 mph4.0 kmh 30.21 in1023.0 mb 0.00 in0.0 mm 0.00 in0.0 mm 0.00 in0.0 mm
04:29 AM 15.8°F-9.0°C 10.8°F-11.8°C 80% 1.3 mph SSE2.1 kmh SSE 1.8 mph2.9 kmh 30.21 in1023.0 mb 0.00 in0.0 mm 0.00 in0.0 mm 0.00 in0.0 mm
04:34 AM 15.8°F-9.0°C 10.8°F-11.8°C 80% 1.1 mph SSE1.8 kmh SSE 1.8 mph2.9 kmh 30.20 in1022.7 mb 0.00 in0.0 mm 0.00 in0.0 mm 0.00 in0.0 mm
04:39 AM 15.6°F-9.1°C 10.6°F-11.9°C 80% 2.0 mph S3.2 kmh S 2.9 mph4.7 kmh 30.20 in1022.7 mb 0.00 in0.0 mm 0.00 in0.0 mm 0.00 in0.0 mm
04:44 AM 15.8°F-9.0°C 10.8°F-11.8°C 80% 1.8 mph S2.9 kmh S 3.1 mph5.0 kmh 30.20 in1022.7 mb 0.00 in0.0 mm 0.00 in0.0 mm 0.00 in0.0 mm
04:49 AM 15.6°F-9.1°C 10.2°F-12.1°C 79% 0.7 mph SSE1.1 kmh SSE 1.1 mph1.8 kmh 30.20 in1022.7 mb 0.00 in0.0 mm 0.00 in0.0 mm 0.00 in0.0 mm
04:54 AM 15.6°F-9.1°C 10.2°F-12.1°C 79% 1.6 mph S2.6 kmh S 2.7 mph4.3 kmh 30.20 in1022.7 mb 0.00 in0.0 mm 0.00 in0.0 mm 0.00 in0.0 mm
04:59 AM 15.6°F-9.1°C 10.2°F-12.1°C 79% 1.3 mph SSE2.1 kmh SSE 2.2 mph3.5 kmh 30.20 in1022.7 mb 0.00 in0.0 mm 0.00 in0.0 mm 0.00 in0.0 mm
05:04 AM 15.8°F-9.0°C 10.4°F-12.0°C 79% 1.1 mph SSE1.8 kmh SSE 2.2 mph3.5 kmh 30.20 in1022.7 mb 0.00 in0.0 mm 0.00 in0.0 mm 0.00 in0.0 mm
05:09 AM 15.8°F-9.0°C 10.4°F-12.0°C 79% 0.9 mph SSE1.4 kmh SSE 1.3 mph2.1 kmh 30.20 in1022.7 mb 0.00 in0.0 mm 0.00 in0.0 mm 0.00 in0.0 mm
05:14 AM 15.6°F-9.1°C 10.2°F-12.1°C 79% 1.6 mph SE2.6 kmh SE 2.5 mph4.0 kmh 30.20 in1022.7 mb 0.00 in0.0 mm 0.00 in0.0 mm 0.00 in0.0 mm
05:19 AM 15.6°F-9.1°C 10.2°F-12.1°C 79% 0.7 mph SE1.1 kmh SE 2.0 mph3.2 kmh 30.20 in1022.7 mb 0.00 in0.0 mm 0.00 in0.0 mm 0.00 in0.0 mm
05:24 AM 15.6°F-9.1°C 10.2°F-12.1°C 79% 1.3 mph S2.1 kmh S 2.0 mph3.2 kmh 30.20 in1022.7 mb 0.00 in0.0 mm 0.00 in0.0 mm 0.00 in0.0 mm
05:29 AM 16.0°F-8.9°C 10.6°F-11.9°C 79% 1.3 mph SSE2.1 kmh SSE 1.8 mph2.9 kmh 30.20 in1022.7 mb 0.00 in0.0 mm 0.00 in0.0 mm 0.00 in0.0 mm
05:34 AM 15.8°F-9.0°C 10.4°F-12.0°C 79% 1.8 mph SE2.9 kmh SE 2.7 mph4.3 kmh 30.20 in1022.7 mb 0.00 in0.0 mm 0.00 in0.0 mm 0.00 in0.0 mm
05:39 AM 15.8°F-9.0°C 10.4°F-12.0°C 79% 0.9 mph SSE1.4 kmh SSE 1.6 mph2.6 kmh 30.20 in1022.7 mb 0.00 in0.0 mm 0.00 in0.0 mm 0.00 in0.0 mm
05:44 AM 16.0°F-8.9°C 10.6°F-11.9°C 79% 1.1 mph S1.8 kmh S 1.3 mph2.1 kmh 30.20 in1022.7 mb 0.00 in0.0 mm 0.00 in0.0 mm 0.00 in0.0 mm
05:49 AM 16.0°F-8.9°C 10.6°F-11.9°C 79% 1.8 mph SSW2.9 kmh SSW 3.1 mph5.0 kmh 30.20 in1022.7 mb 0.00 in0.0 mm 0.00 in0.0 mm 0.00 in0.0 mm
05:54 AM 16.0°F-8.9°C 10.6°F-11.9°C 79% 1.8 mph S2.9 kmh S 2.5 mph4.0 kmh 30.20 in1022.7 mb 0.00 in0.0 mm 0.00 in0.0 mm 0.00 in0.0 mm
05:59 AM 16.0°F-8.9°C 10.6°F-11.9°C 79% 1.3 mph S2.1 kmh S 1.8 mph2.9 kmh 30.20 in1022.7 mb 0.00 in0.0 mm 0.00 in0.0 mm 0.00 in0.0 mm
06:04 AM 16.0°F-8.9°C 10.6°F-11.9°C 79% 1.3 mph SSE2.1 kmh SSE 1.8 mph2.9 kmh 30.20 in1022.7 mb 0.00 in0.0 mm 0.00 in0.0 mm 0.00 in0.0 mm
06:09 AM 16.0°F-8.9°C 10.6°F-11.9°C 79% 1.1 mph S1.8 kmh S 1.8 mph2.9 kmh 30.21 in1023.0 mb 0.00 in0.0 mm 0.00 in0.0 mm 0.00 in0.0 mm
06:14 AM 16.0°F-8.9°C 10.4°F-12.0°C 78% 1.3 mph S2.1 kmh S 2.2 mph3.5 kmh 30.21 in1023.0 mb 0.00 in0.0 mm 0.00 in0.0 mm 0.00 in0.0 mm
06:19 AM 16.0°F-8.9°C 10.6°F-11.9°C 79% 1.1 mph SE1.8 kmh SE 2.0 mph3.2 kmh 30.21 in1023.0 mb 0.00 in0.0 mm 0.00 in0.0 mm 0.00 in0.0 mm
06:24 AM 16.0°F-8.9°C 10.6°F-11.9°C 79% 1.1 mph S1.8 kmh S 1.8 mph2.9 kmh 30.21 in1023.0 mb 0.00 in0.0 mm 0.00 in0.0 mm 0.00 in0.0 mm
06:29 AM 15.8°F-9.0°C 10.2°F-12.1°C 78% 0.9 mph SSE1.4 kmh SSE 1.1 mph1.8 kmh 30.21 in1023.0 mb 0.00 in0.0 mm 0.00 in0.0 mm 0.00 in0.0 mm
06:34 AM 16.0°F-8.9°C 10.6°F-11.9°C 79% 1.1 mph S1.8 kmh S 2.7 mph4.3 kmh 30.21 in1023.0 mb 0.00 in0.0 mm 0.00 in0.0 mm 0.00 in0.0 mm
06:39 AM 16.0°F-8.9°C 10.4°F-12.0°C 78% 1.1 mph SSE1.8 kmh SSE 1.6 mph2.6 kmh 30.21 in1023.0 mb 0.00 in0.0 mm 0.00 in0.0 mm 0.00 in0.0 mm
06:44 AM 15.6°F-9.1°C 10.0°F-12.2°C 78% 1.1 mph SSE1.8 kmh SSE 1.6 mph2.6 kmh 30.21 in1023.0 mb 0.00 in0.0 mm 0.00 in0.0 mm 0.00 in0.0 mm
06:49 AM 15.8°F-9.0°C 10.2°F-12.1°C 78% 1.3 mph SSE2.1 kmh SSE 2.2 mph3.5 kmh 30.21 in1023.0 mb 0.00 in0.0 mm 0.00 in0.0 mm 0.00 in0.0 mm
06:54 AM 15.8°F-9.0°C 10.2°F-12.1°C 78% 1.3 mph SSE2.1 kmh SSE 1.8 mph2.9 kmh 30.21 in1023.0 mb 0.00 in0.0 mm 0.00 in0.0 mm 0.00 in0.0 mm
06:59 AM 15.8°F-9.0°C 10.2°F-12.1°C 78% 0.9 mph SE1.4 kmh SE 2.0 mph3.2 kmh 30.22 in1023.4 mb 0.00 in0.0 mm 0.00 in0.0 mm 0.00 in0.0 mm
07:04 AM 16.2°F-8.8°C 10.6°F-11.9°C 78% 0.7 mph SE1.1 kmh SE 2.0 mph3.2 kmh 30.22 in1023.4 mb 0.00 in0.0 mm 0.00 in0.0 mm 0.00 in0.0 mm
07:09 AM 16.2°F-8.8°C 10.6°F-11.9°C 78% 1.8 mph S2.9 kmh S 2.9 mph4.7 kmh 30.22 in1023.4 mb 0.00 in0.0 mm 0.00 in0.0 mm 0.00 in0.0 mm
07:14 AM 16.2°F-8.8°C 10.6°F-11.9°C 78% 1.3 mph SSE2.1 kmh SSE 2.2 mph3.5 kmh 30.22 in1023.4 mb 0.00 in0.0 mm 0.00 in0.0 mm 0.00 in0.0 mm
07:19 AM 16.0°F-8.9°C 10.4°F-12.0°C 78% 1.6 mph SE2.6 kmh SE 2.7 mph4.3 kmh 30.22 in1023.4 mb 0.00 in0.0 mm 0.00 in0.0 mm 0.00 in0.0 mm
07:24 AM 16.0°F-8.9°C 10.4°F-12.0°C 78% 1.6 mph SE2.6 kmh SE 2.2 mph3.5 kmh 30.22 in1023.4 mb 0.00 in0.0 mm 0.00 in0.0 mm 0.00 in0.0 mm
07:29 AM 15.8°F-9.0°C 10.2°F-12.1°C 78% 1.6 mph SSE2.6 kmh SSE 2.7 mph4.3 kmh 30.22 in1023.4 mb 0.00 in0.0 mm 0.00 in0.0 mm 0.00 in0.0 mm
07:34 AM 16.0°F-8.9°C 10.6°F-11.9°C 79% 1.3 mph SSE2.1 kmh SSE 2.0 mph3.2 kmh 30.22 in1023.4 mb 0.00 in0.0 mm 0.00 in0.0 mm 0.00 in0.0 mm
07:39 AM 16.0°F-8.9°C 10.4°F-12.0°C 78% 0.9 mph SSE1.4 kmh SSE 2.2 mph3.5 kmh 30.22 in1023.4 mb 0.00 in0.0 mm 0.00 in0.0 mm 0.00 in0.0 mm
07:44 AM 16.3°F-8.7°C 10.8°F-11.8°C 78% 1.8 mph SSW2.9 kmh SSW 2.9 mph4.7 kmh 30.22 in1023.4 mb 0.00 in0.0 mm 0.00 in0.0 mm 0.00 in0.0 mm
07:49 AM 16.0°F-8.9°C 10.4°F-12.0°C 78% 1.3 mph SE2.1 kmh SE 2.5 mph4.0 kmh 30.22 in1023.4 mb 0.00 in0.0 mm 0.00 in0.0 mm 0.00 in0.0 mm
07:54 AM 16.2°F-8.8°C 10.6°F-11.9°C 78% 2.2 mph SSE3.5 kmh SSE 4.5 mph7.2 kmh 30.22 in1023.4 mb 0.00 in0.0 mm 0.00 in0.0 mm 0.00 in0.0 mm
07:59 AM 16.2°F-8.8°C 10.6°F-11.9°C 78% 1.6 mph SE2.6 kmh SE 3.1 mph5.0 kmh 30.22 in1023.4 mb 0.00 in0.0 mm 0.00 in0.0 mm 0.00 in0.0 mm
08:04 AM 16.3°F-8.7°C 10.8°F-11.8°C 78% 1.1 mph SSE1.8 kmh SSE 2.0 mph3.2 kmh 30.22 in1023.4 mb 0.00 in0.0 mm 0.00 in0.0 mm 0.00 in0.0 mm
08:09 AM 16.5°F-8.6°C 10.9°F-11.7°C 78% 1.1 mph SE1.8 kmh SE 1.8 mph2.9 kmh 30.22 in1023.4 mb 0.00 in0.0 mm 0.00 in0.0 mm 0.00 in0.0 mm
08:14 AM 16.5°F-8.6°C 10.9°F-11.7°C 78% 0.9 mph SSE1.4 kmh SSE 1.3 mph2.1 kmh 30.22 in1023.4 mb 0.00 in0.0 mm 0.00 in0.0 mm 0.00 in0.0 mm
08:19 AM 16.7°F-8.5°C 11.1°F-11.6°C 78% 1.3 mph SE2.1 kmh SE 2.0 mph3.2 kmh 30.22 in1023.4 mb 0.00 in0.0 mm 0.00 in0.0 mm 0.00 in0.0 mm
08:24 AM 16.3°F-8.7°C 10.8°F-11.8°C 78% 1.3 mph SE2.1 kmh SE 2.5 mph4.0 kmh 30.22 in1023.4 mb 0.00 in0.0 mm 0.00 in0.0 mm 0.00 in0.0 mm
08:29 AM 16.3°F-8.7°C 10.8°F-11.8°C 78% 2.0 mph SE3.2 kmh SE 2.2 mph3.5 kmh 30.22 in1023.4 mb 0.00 in0.0 mm 0.00 in0.0 mm 0.00 in0.0 mm
08:34 AM 16.2°F-8.8°C 10.6°F-11.9°C 78% 1.8 mph SSE2.9 kmh SSE 2.9 mph4.7 kmh 30.22 in1023.4 mb 0.00 in0.0 mm 0.00 in0.0 mm 0.00 in0.0 mm
08:39 AM 16.2°F-8.8°C 10.6°F-11.9°C 78% 1.3 mph SSE2.1 kmh SSE 2.2 mph3.5 kmh 30.22 in1023.4 mb 0.00 in0.0 mm 0.00 in0.0 mm 0.00 in0.0 mm
08:44 AM 16.5°F-8.6°C 10.9°F-11.7°C 78% 0.9 mph SSE1.4 kmh SSE 2.0 mph3.2 kmh 30.22 in1023.4 mb 0.00 in0.0 mm 0.00 in0.0 mm 0.00 in0.0 mm
08:49 AM 16.5°F-8.6°C 10.9°F-11.7°C 78% 0.9 mph SE1.4 kmh SE 1.3 mph2.1 kmh 30.22 in1023.4 mb 0.00 in0.0 mm 0.00 in0.0 mm 0.00 in0.0 mm
08:54 AM 16.3°F-8.7°C 10.8°F-11.8°C 78% Calm Calm 1.1 mph1.8 kmh 30.22 in1023.4 mb 0.00 in0.0 mm 0.00 in0.0 mm 0.00 in0.0 mm
08:59 AM 16.2°F-8.8°C 10.6°F-11.9°C 78% 1.6 mph SE2.6 kmh SE 2.0 mph3.2 kmh 30.22 in1023.4 mb 0.00 in0.0 mm 0.00 in0.0 mm 0.00 in0.0 mm
09:04 AM 16.2°F-8.8°C 10.6°F-11.9°C 78% 1.1 mph SE1.8 kmh SE 2.0 mph3.2 kmh 30.22 in1023.4 mb 0.00 in0.0 mm 0.00 in0.0 mm 0.00 in0.0 mm
09:09 AM 16.3°F-8.7°C 10.8°F-11.8°C 78% 1.1 mph SE1.8 kmh SE 2.2 mph3.5 kmh 30.22 in1023.4 mb 0.00 in0.0 mm 0.00 in0.0 mm 0.00 in0.0 mm
09:14 AM 16.7°F-8.5°C 11.1°F-11.6°C 78% 1.1 mph SE1.8 kmh SE 1.8 mph2.9 kmh 30.22 in1023.4 mb 0.00 in0.0 mm 0.00 in0.0 mm 0.00 in0.0 mm
09:19 AM 16.3°F-8.7°C 10.0°F-12.2°C 76% 1.6 mph SE2.6 kmh SE 1.8 mph2.9 kmh 30.22 in1023.4 mb 0.00 in0.0 mm 0.00 in0.0 mm 0.00 in0.0 mm
09:24 AM 16.5°F-8.6°C 10.9°F-11.7°C 78% 0.7 mph SE1.1 kmh SE 1.8 mph2.9 kmh 30.22 in1023.4 mb 0.00 in0.0 mm 0.00 in0.0 mm 0.00 in0.0 mm
09:29 AM 16.7°F-8.5°C 11.1°F-11.6°C 78% 1.6 mph SE2.6 kmh SE 1.8 mph2.9 kmh 30.22 in1023.4 mb 0.00 in0.0 mm 0.00 in0.0 mm 0.00 in0.0 mm
09:34 AM 17.2°F-8.2°C 10.9°F-11.7°C 76% 1.3 mph SE2.1 kmh SE 2.2 mph3.5 kmh 30.22 in1023.4 mb 0.00 in0.0 mm 0.00 in0.0 mm 0.00 in0.0 mm
09:39 AM 17.2°F-8.2°C 10.9°F-11.7°C 76% 0.9 mph SSE1.4 kmh SSE 1.1 mph1.8 kmh 30.22 in1023.4 mb 0.00 in0.0 mm 0.00 in0.0 mm 0.00 in0.0 mm
09:44 AM 17.2°F-8.2°C 10.9°F-11.7°C 76% 0.9 mph SE1.4 kmh SE 1.8 mph2.9 kmh 30.22 in1023.4 mb 0.00 in0.0 mm 0.00 in0.0 mm 0.00 in0.0 mm
09:49 AM 16.9°F-8.4°C 10.6°F-11.9°C 76% 1.6 mph SE2.6 kmh SE 2.5 mph4.0 kmh 30.22 in1023.4 mb 0.00 in0.0 mm 0.00 in0.0 mm 0.00 in0.0 mm
09:54 AM 16.5°F-8.6°C 10.9°F-11.7°C 78% 1.6 mph SE2.6 kmh SE 2.7 mph4.3 kmh 30.22 in1023.4 mb 0.00 in0.0 mm 0.00 in0.0 mm 0.00 in0.0 mm
09:59 AM 16.9°F-8.4°C 11.1°F-11.6°C 78% 1.6 mph ESE2.6 kmh ESE 1.8 mph2.9 kmh 30.22 in1023.4 mb 0.00 in0.0 mm 0.00 in0.0 mm 0.00 in0.0 mm
10:04 AM 17.1°F-8.3°C 11.3°F-11.5°C 78% 1.3 mph SE2.1 kmh SE 1.8 mph2.9 kmh 30.22 in1023.4 mb 0.00 in0.0 mm 0.00 in0.0 mm 0.00 in0.0 mm
10:09 AM 17.1°F-8.3°C 11.3°F-11.5°C 78% 1.1 mph SSE1.8 kmh SSE 1.3 mph2.1 kmh 30.22 in1023.4 mb 0.00 in0.0 mm 0.00 in0.0 mm 0.00 in0.0 mm
10:14 AM 16.9°F-8.4°C 11.1°F-11.6°C 78% 1.3 mph SE2.1 kmh SE 1.8 mph2.9 kmh 30.22 in1023.4 mb 0.00 in0.0 mm 0.00 in0.0 mm 0.00 in0.0 mm
10:19 AM 16.7°F-8.5°C 11.1°F-11.6°C 78% 0.9 mph SE1.4 kmh SE 1.6 mph2.6 kmh 30.22 in1023.4 mb 0.00 in0.0 mm 0.00 in0.0 mm 0.00 in0.0 mm
10:24 AM 17.2°F-8.2°C 11.8°F-11.2°C 79% 1.3 mph E2.1 kmh E 1.6 mph2.6 kmh 30.22 in1023.4 mb 0.00 in0.0 mm 0.00 in0.0 mm 0.00 in0.0 mm
10:29 AM 17.2°F-8.2°C 11.5°F-11.4°C 78% 0.2 mph W0.3 kmh W 0.9 mph1.4 kmh 30.22 in1023.4 mb 0.00 in0.0 mm 0.00 in0.0 mm 0.00 in0.0 mm
10:34 AM 17.2°F-8.2°C 11.5°F-11.4°C 78% 1.3 mph SE2.1 kmh SE 2.5 mph4.0 kmh 30.22 in1023.4 mb 0.00 in0.0 mm 0.00 in0.0 mm 0.00 in0.0 mm
10:39 AM 17.8°F-7.9°C 12.4°F-10.9°C 79% 1.8 mph ESE2.9 kmh ESE 2.2 mph3.5 kmh 30.22 in1023.4 mb 0.00 in0.0 mm 0.00 in0.0 mm 0.00 in0.0 mm
10:44 AM 18.0°F-7.8°C 12.2°F-11.0°C 78% 1.8 mph E2.9 kmh E 2.2 mph3.5 kmh 30.22 in1023.4 mb 0.00 in0.0 mm 0.00 in0.0 mm 0.00 in0.0 mm
10:49 AM 17.4°F-8.1°C 11.7°F-11.3°C 78% 1.3 mph SE2.1 kmh SE 1.6 mph2.6 kmh 30.22 in1023.4 mb 0.00 in0.0 mm 0.00 in0.0 mm 0.00 in0.0 mm
10:54 AM 17.4°F-8.1°C 11.7°F-11.3°C 78% 0.4 mph E0.6 kmh E 1.3 mph2.1 kmh 30.22 in1023.4 mb 0.00 in0.0 mm 0.00 in0.0 mm 0.00 in0.0 mm
10:59 AM 17.8°F-7.9°C 12.0°F-11.1°C 78% 1.6 mph E2.6 kmh E 1.8 mph2.9 kmh 30.21 in1023.0 mb 0.00 in0.0 mm 0.00 in0.0 mm 0.00 in0.0 mm
11:04 AM 18.1°F-7.7°C 12.7°F-10.7°C 79% 2.2 mph SE3.5 kmh SE 3.4 mph5.5 kmh 30.21 in1023.0 mb 0.00 in0.0 mm 0.00 in0.0 mm 0.00 in0.0 mm
11:09 AM 18.5°F-7.5°C 13.1°F-10.5°C 79% 0.7 mph SE1.1 kmh SE 1.8 mph2.9 kmh 30.21 in1023.0 mb 0.00 in0.0 mm 0.00 in0.0 mm 0.00 in0.0 mm
11:14 AM 18.0°F-7.8°C 12.2°F-11.0°C 78% 1.1 mph ESE1.8 kmh ESE 2.2 mph3.5 kmh 30.21 in1023.0 mb 0.00 in0.0 mm 0.00 in0.0 mm 0.00 in0.0 mm
11:19 AM 18.1°F-7.7°C 12.4°F-10.9°C 78% 1.3 mph SE2.1 kmh SE 1.8 mph2.9 kmh 30.22 in1023.4 mb 0.00 in0.0 mm 0.00 in0.0 mm 0.00 in0.0 mm
11:24 AM 18.3°F-7.6°C 12.6°F-10.8°C 78% 1.6 mph E2.6 kmh E 2.9 mph4.7 kmh 30.21 in1023.0 mb 0.00 in0.0 mm 0.00 in0.0 mm 0.00 in0.0 mm
11:29 AM 18.5°F-7.5°C 12.7°F-10.7°C 78% 2.0 mph ESE3.2 kmh ESE 2.7 mph4.3 kmh 30.21 in1023.0 mb 0.00 in0.0 mm 0.00 in0.0 mm 0.00 in0.0 mm
11:34 AM 19.0°F-7.2°C 13.3°F-10.4°C 78% 1.6 mph SE2.6 kmh SE 2.7 mph4.3 kmh 30.21 in1023.0 mb 0.00 in0.0 mm 0.00 in0.0 mm 0.00 in0.0 mm
11:39 AM 19.2°F-7.1°C 13.5°F-10.3°C 78% 2.5 mph ESE4.0 kmh ESE 3.6 mph5.8 kmh 30.21 in1023.0 mb 0.00 in0.0 mm 0.00 in0.0 mm 0.00 in0.0 mm
11:44 AM 19.4°F-7.0°C 13.1°F-10.5°C 76% 3.1 mph SE5.0 kmh SE 3.6 mph5.8 kmh 30.21 in1023.0 mb 0.00 in0.0 mm 0.00 in0.0 mm 0.00 in0.0 mm
11:49 AM 19.8°F-6.8°C 13.5°F-10.3°C 76% 2.7 mph SE4.3 kmh SE 3.6 mph5.8 kmh 30.20 in1022.7 mb 0.00 in0.0 mm 0.00 in0.0 mm 0.00 in0.0 mm
11:54 AM 20.1°F-6.6°C 14.4°F-9.8°C 78% 2.7 mph SE4.3 kmh SE 3.6 mph5.8 kmh 30.21 in1023.0 mb 0.00 in0.0 mm 0.00 in0.0 mm 0.00 in0.0 mm
11:59 AM 20.7°F-6.3°C 14.9°F-9.5°C 78% 2.7 mph ESE4.3 kmh ESE 3.6 mph5.8 kmh 30.20 in1022.7 mb 0.00 in0.0 mm 0.00 in0.0 mm 0.00 in0.0 mm
12:04 PM 21.2°F-6.0°C 14.9°F-9.5°C 76% 1.6 mph SE2.6 kmh SE 1.8 mph2.9 kmh 30.21 in1023.0 mb 0.00 in0.0 mm 0.00 in0.0 mm 0.00 in0.0 mm
12:09 PM 21.2°F-6.0°C 14.9°F-9.5°C 76% 2.5 mph ESE4.0 kmh ESE 3.4 mph5.5 kmh 30.21 in1023.0 mb 0.00 in0.0 mm 0.00 in0.0 mm 0.00 in0.0 mm
12:14 PM 21.0°F-6.1°C 15.3°F-9.3°C 78% 1.3 mph ESE2.1 kmh ESE 1.8 mph2.9 kmh 30.21 in1023.0 mb 0.00 in0.0 mm 0.00 in0.0 mm 0.00 in0.0 mm
12:19 PM 21.2°F-6.0°C 14.9°F-9.5°C 76% 2.9 mph ESE4.7 kmh ESE 3.6 mph5.8 kmh 30.21 in1023.0 mb 0.00 in0.0 mm 0.00 in0.0 mm 0.00 in0.0 mm
12:24 PM 21.6°F-5.8°C 15.1°F-9.4°C 76% 0.7 mph E1.1 kmh E 2.2 mph3.5 kmh 30.20 in1022.7 mb 0.00 in0.0 mm 0.00 in0.0 mm 0.00 in0.0 mm
12:29 PM 21.2°F-6.0°C 14.5°F-9.7°C 75% 0.2 mph SE0.3 kmh SE 1.3 mph2.1 kmh 30.20 in1022.7 mb 0.00 in0.0 mm 0.00 in0.0 mm 0.00 in0.0 mm
12:34 PM 21.4°F-5.9°C 14.7°F-9.6°C 75% 3.1 mph ESE5.0 kmh ESE 3.6 mph5.8 kmh 30.20 in1022.7 mb 0.00 in0.0 mm 0.00 in0.0 mm 0.00 in0.0 mm
12:39 PM 21.9°F-5.6°C 15.3°F-9.3°C 75% 2.9 mph ESE4.7 kmh ESE 3.4 mph5.5 kmh 30.19 in1022.4 mb 0.00 in0.0 mm 0.00 in0.0 mm 0.00 in0.0 mm
12:44 PM 22.3°F-5.4°C 15.6°F-9.1°C 75% 2.9 mph SE4.7 kmh SE 3.6 mph5.8 kmh 30.19 in1022.4 mb 0.00 in0.0 mm 0.00 in0.0 mm 0.00 in0.0 mm
12:49 PM 22.3°F-5.4°C 15.6°F-9.1°C 75% 2.7 mph SE4.3 kmh SE 3.6 mph5.8 kmh 30.19 in1022.4 mb 0.00 in0.0 mm 0.00 in0.0 mm 0.00 in0.0 mm
12:54 PM 22.1°F-5.5°C 15.4°F-9.2°C 75% 2.2 mph SE3.5 kmh SE 2.9 mph4.7 kmh 30.19 in1022.4 mb 0.00 in0.0 mm 0.00 in0.0 mm 0.00 in0.0 mm
12:59 PM 22.1°F-5.5°C 15.6°F-9.1°C 76% 1.8 mph E2.9 kmh E 2.2 mph3.5 kmh 30.19 in1022.4 mb 0.00 in0.0 mm 0.00 in0.0 mm 0.00 in0.0 mm
01:04 PM 22.5°F-5.3°C 15.8°F-9.0°C 75% 1.8 mph E2.9 kmh E 2.2 mph3.5 kmh 30.19 in1022.4 mb 0.00 in0.0 mm 0.00 in0.0 mm 0.00 in0.0 mm
01:09 PM 21.9°F-5.6°C 15.4°F-9.2°C 76% 0.9 mph E1.4 kmh E 1.6 mph2.6 kmh 30.19 in1022.4 mb 0.00 in0.0 mm 0.00 in0.0 mm 0.00 in0.0 mm
01:14 PM 21.6°F-5.8°C 14.9°F-9.5°C 75% 1.8 mph NE2.9 kmh NE 2.2 mph3.5 kmh 30.19 in1022.4 mb 0.00 in0.0 mm 0.00 in0.0 mm 0.00 in0.0 mm
01:19 PM 21.7°F-5.7°C 15.3°F-9.3°C 76% 1.6 mph SW2.6 kmh SW 2.7 mph4.3 kmh 30.18 in1022.0 mb 0.00 in0.0 mm 0.00 in0.0 mm 0.00 in0.0 mm
01:24 PM 21.6°F-5.8°C 14.9°F-9.5°C 75% 1.1 mph NE1.8 kmh NE 1.8 mph2.9 kmh 30.18 in1022.0 mb 0.00 in0.0 mm 0.00 in0.0 mm 0.00 in0.0 mm
01:29 PM 21.9°F-5.6°C 16.2°F-8.8°C 78% 2.2 mph SE3.5 kmh SE 3.4 mph5.5 kmh 30.18 in1022.0 mb 0.00 in0.0 mm 0.00 in0.0 mm 0.00 in0.0 mm
01:34 PM 22.1°F-5.5°C 16.9°F-8.4°C 80% 2.2 mph S3.5 kmh S 3.4 mph5.5 kmh 30.18 in1022.0 mb 0.00 in0.0 mm 0.00 in0.0 mm 0.00 in0.0 mm
01:39 PM 22.3°F-5.4°C 17.1°F-8.3°C 80% 1.8 mph S2.9 kmh S 2.5 mph4.0 kmh 30.18 in1022.0 mb 0.00 in0.0 mm 0.00 in0.0 mm 0.00 in0.0 mm
01:44 PM 22.5°F-5.3°C 17.2°F-8.2°C 80% 2.2 mph S3.5 kmh S 2.7 mph4.3 kmh 30.18 in1022.0 mb 0.00 in0.0 mm 0.00 in0.0 mm 0.00 in0.0 mm
01:49 PM 22.5°F-5.3°C 16.9°F-8.4°C 79% 1.8 mph S2.9 kmh S 3.4 mph5.5 kmh 30.18 in1022.0 mb 0.00 in0.0 mm 0.00 in0.0 mm 0.00 in0.0 mm
01:54 PM 22.6°F-5.2°C 16.9°F-8.4°C 78% 1.6 mph SSE2.6 kmh SSE 2.0 mph3.2 kmh 30.17 in1021.7 mb 0.00 in0.0 mm 0.00 in0.0 mm 0.00 in0.0 mm
01:59 PM 22.5°F-5.3°C 16.7°F-8.5°C 78% 1.1 mph SE1.8 kmh SE 1.6 mph2.6 kmh 30.17 in1021.7 mb 0.00 in0.0 mm 0.00 in0.0 mm 0.00 in0.0 mm
02:04 PM 22.5°F-5.3°C 16.0°F-8.9°C 76% 0.7 mph NE1.1 kmh NE 1.6 mph2.6 kmh 30.17 in1021.7 mb 0.00 in0.0 mm 0.00 in0.0 mm 0.00 in0.0 mm
02:09 PM 22.8°F-5.1°C 16.3°F-8.7°C 76% 0.4 mph SSE0.6 kmh SSE 1.3 mph2.1 kmh 30.17 in1021.7 mb 0.00 in0.0 mm 0.00 in0.0 mm 0.00 in0.0 mm
02:14 PM 22.6°F-5.2°C 16.2°F-8.8°C 76% 1.1 mph SE1.8 kmh SE 2.5 mph4.0 kmh 30.17 in1021.7 mb 0.00 in0.0 mm 0.00 in0.0 mm 0.00 in0.0 mm
02:19 PM 22.6°F-5.2°C 17.4°F-8.1°C 80% 2.0 mph S3.2 kmh S 3.8 mph6.1 kmh 30.17 in1021.7 mb 0.00 in0.0 mm 0.00 in0.0 mm 0.00 in0.0 mm
02:24 PM 22.8°F-5.1°C 17.2°F-8.2°C 79% 2.0 mph S3.2 kmh S 4.0 mph6.4 kmh 30.16 in1021.3 mb 0.00 in0.0 mm 0.00 in0.0 mm 0.00 in0.0 mm
02:29 PM 22.8°F-5.1°C 17.1°F-8.3°C 78% 2.5 mph S4.0 kmh S 3.1 mph5.0 kmh 30.16 in1021.3 mb 0.00 in0.0 mm 0.00 in0.0 mm 0.00 in0.0 mm
02:34 PM 22.6°F-5.2°C 16.9°F-8.4°C 78% 2.2 mph SSW3.5 kmh SSW 3.1 mph5.0 kmh 30.16 in1021.3 mb 0.00 in0.0 mm 0.00 in0.0 mm 0.00 in0.0 mm
02:39 PM 23.0°F-5.0°C 17.2°F-8.2°C 78% 1.6 mph SE2.6 kmh SE 2.0 mph3.2 kmh 30.16 in1021.3 mb 0.00 in0.0 mm 0.00 in0.0 mm 0.00 in0.0 mm
02:44 PM 23.0°F-5.0°C 17.2°F-8.2°C 78% 2.0 mph SE3.2 kmh SE 2.7 mph4.3 kmh 30.16 in1021.3 mb 0.00 in0.0 mm 0.00 in0.0 mm 0.00 in0.0 mm
02:49 PM 23.4°F-4.8°C 17.6°F-8.0°C 78% 1.1 mph SE1.8 kmh SE 1.3 mph2.1 kmh 30.16 in1021.3 mb 0.00 in0.0 mm 0.00 in0.0 mm 0.00 in0.0 mm
02:54 PM 23.5°F-4.7°C 17.8°F-7.9°C 78% 2.7 mph SSE4.3 kmh SSE 4.7 mph7.6 kmh 30.16 in1021.3 mb 0.00 in0.0 mm 0.00 in0.0 mm 0.00 in0.0 mm
02:59 PM 23.4°F-4.8°C 17.6°F-8.0°C 78% 3.4 mph S5.5 kmh S 3.8 mph6.1 kmh 30.15 in1021.0 mb 0.00 in0.0 mm 0.00 in0.0 mm 0.00 in0.0 mm
03:04 PM 23.5°F-4.7°C 18.0°F-7.8°C 79% 2.7 mph S4.3 kmh S 4.7 mph7.6 kmh 30.15 in1021.0 mb 0.00 in0.0 mm 0.00 in0.0 mm 0.00 in0.0 mm
03:09 PM 23.5°F-4.7°C 18.5°F-7.5°C 81% 1.3 mph S2.1 kmh S 1.8 mph2.9 kmh 30.15 in1021.0 mb 0.00 in0.0 mm 0.00 in0.0 mm 0.00 in0.0 mm
03:14 PM 23.7°F-4.6°C 18.5°F-7.5°C 80% 1.8 mph S2.9 kmh S 2.7 mph4.3 kmh 30.14 in1020.7 mb 0.00 in0.0 mm 0.00 in0.0 mm 0.00 in0.0 mm
03:19 PM 24.3°F-4.3°C 18.7°F-7.4°C 79% 3.1 mph S5.0 kmh S 5.1 mph8.2 kmh 30.14 in1020.7 mb 0.00 in0.0 mm 0.00 in0.0 mm 0.00 in0.0 mm
03:24 PM 24.4°F-4.2°C 18.0°F-7.8°C 76% 4.5 mph SSW7.2 kmh SSW 6.3 mph10.1 kmh 30.14 in1020.7 mb 0.00 in0.0 mm 0.00 in0.0 mm 0.00 in0.0 mm
03:29 PM 24.4°F-4.2°C 17.6°F-8.0°C 75% 1.8 mph S2.9 kmh S 4.0 mph6.4 kmh 30.14 in1020.7 mb 0.00 in0.0 mm 0.00 in0.0 mm 0.00 in0.0 mm
03:34 PM 24.6°F-4.1°C 17.8°F-7.9°C 75% 1.6 mph SSE2.6 kmh SSE 2.9 mph4.7 kmh 30.14 in1020.7 mb 0.00 in0.0 mm 0.00 in0.0 mm 0.00 in0.0 mm
03:39 PM 24.6°F-4.1°C 17.6°F-8.0°C 74% 4.7 mph S7.6 kmh S 7.2 mph11.6 kmh 30.14 in1020.7 mb 0.00 in0.0 mm 0.00 in0.0 mm 0.00 in0.0 mm
03:44 PM 24.3°F-4.3°C 17.2°F-8.2°C 74% 4.5 mph SSW7.2 kmh SSW 6.0 mph9.7 kmh 30.14 in1020.7 mb 0.00 in0.0 mm 0.00 in0.0 mm 0.00 in0.0 mm
03:49 PM 24.3°F-4.3°C 17.2°F-8.2°C 74% 3.6 mph SSW5.8 kmh SSW 7.2 mph11.6 kmh 30.14 in1020.7 mb 0.00 in0.0 mm 0.00 in0.0 mm 0.00 in0.0 mm
03:54 PM 24.6°F-4.1°C 17.6°F-8.0°C 74% 1.8 mph SSW2.9 kmh SSW 3.1 mph5.0 kmh 30.14 in1020.7 mb 0.00 in0.0 mm 0.00 in0.0 mm 0.00 in0.0 mm
03:59 PM 24.6°F-4.1°C 17.6°F-8.0°C 74% 4.0 mph S6.4 kmh S 5.6 mph9.0 kmh 30.14 in1020.7 mb 0.00 in0.0 mm 0.00 in0.0 mm 0.00 in0.0 mm
04:04 PM 24.4°F-4.2°C 17.4°F-8.1°C 74% 1.8 mph SW2.9 kmh SW 3.4 mph5.5 kmh 30.14 in1020.7 mb 0.00 in0.0 mm 0.00 in0.0 mm 0.00 in0.0 mm
04:09 PM 24.6°F-4.1°C 17.6°F-8.0°C 74% 3.6 mph S5.8 kmh S 5.6 mph9.0 kmh 30.14 in1020.7 mb 0.00 in0.0 mm 0.00 in0.0 mm 0.00 in0.0 mm
04:14 PM 24.4°F-4.2°C 17.1°F-8.3°C 73% 0.4 mph S0.6 kmh S 1.6 mph2.6 kmh 30.13 in1020.3 mb 0.00 in0.0 mm 0.00 in0.0 mm 0.00 in0.0 mm
04:19 PM 24.6°F-4.1°C 17.6°F-8.0°C 74% 5.6 mph S9.0 kmh S 7.4 mph11.9 kmh 30.13 in1020.3 mb 0.00 in0.0 mm 0.00 in0.0 mm 0.00 in0.0 mm
04:24 PM 24.8°F-4.0°C 17.6°F-8.0°C 74% 3.1 mph S5.0 kmh S 4.7 mph7.6 kmh 30.13 in1020.3 mb 0.00 in0.0 mm 0.00 in0.0 mm 0.00 in0.0 mm
04:29 PM 24.6°F-4.1°C 17.6°F-8.0°C 74% 2.9 mph SW4.7 kmh SW 4.3 mph6.9 kmh 30.13 in1020.3 mb 0.00 in0.0 mm 0.00 in0.0 mm 0.00 in0.0 mm
04:34 PM 24.6°F-4.1°C 17.6°F-8.0°C 74% 2.7 mph S4.3 kmh S 3.6 mph5.8 kmh 30.13 in1020.3 mb 0.00 in0.0 mm 0.00 in0.0 mm 0.00 in0.0 mm
04:39 PM 24.6°F-4.1°C 17.6°F-8.0°C 74% 2.2 mph S3.5 kmh S 5.4 mph8.7 kmh 30.12 in1020.0 mb 0.00 in0.0 mm 0.00 in0.0 mm 0.00 in0.0 mm
04:44 PM 24.4°F-4.2°C 17.4°F-8.1°C 74% 0.7 mph SSE1.1 kmh SSE 2.5 mph4.0 kmh 30.13 in1020.3 mb 0.00 in0.0 mm 0.00 in0.0 mm 0.00 in0.0 mm
04:49 PM 24.4°F-4.2°C 17.4°F-8.1°C 74% 1.3 mph S2.1 kmh S 2.0 mph3.2 kmh 30.12 in1020.0 mb 0.00 in0.0 mm 0.00 in0.0 mm 0.00 in0.0 mm
04:54 PM 24.4°F-4.2°C 17.4°F-8.1°C 74% 0.9 mph NE1.4 kmh NE 1.6 mph2.6 kmh 30.12 in1020.0 mb 0.00 in0.0 mm 0.00 in0.0 mm 0.00 in0.0 mm
04:59 PM 24.3°F-4.3°C 16.9°F-8.4°C 73% 2.2 mph S3.5 kmh S 3.8 mph6.1 kmh 30.12 in1020.0 mb 0.00 in0.0 mm 0.00 in0.0 mm 0.00 in0.0 mm
05:04 PM 24.3°F-4.3°C 17.2°F-8.2°C 74% 0.9 mph WSW1.4 kmh WSW 2.7 mph4.3 kmh 30.12 in1020.0 mb 0.00 in0.0 mm 0.00 in0.0 mm 0.00 in0.0 mm
05:09 PM 24.3°F-4.3°C 17.2°F-8.2°C 74% 0.7 mph SSE1.1 kmh SSE 1.8 mph2.9 kmh 30.11 in1019.6 mb 0.00 in0.0 mm 0.00 in0.0 mm 0.00 in0.0 mm
05:14 PM 24.3°F-4.3°C 16.9°F-8.4°C 73% 1.8 mph S2.9 kmh S 2.2 mph3.5 kmh 30.11 in1019.6 mb 0.00 in0.0 mm 0.00 in0.0 mm 0.00 in0.0 mm
05:19 PM 24.3°F-4.3°C 16.9°F-8.4°C 73% 2.0 mph SE3.2 kmh SE 2.7 mph4.3 kmh 30.11 in1019.6 mb 0.00 in0.0 mm 0.00 in0.0 mm 0.00 in0.0 mm
05:24 PM 24.1°F-4.4°C 16.7°F-8.5°C 73% 1.6 mph S2.6 kmh S 2.7 mph4.3 kmh 30.11 in1019.6 mb 0.00 in0.0 mm 0.00 in0.0 mm 0.00 in0.0 mm
05:29 PM 24.1°F-4.4°C 16.7°F-8.5°C 73% 1.3 mph S2.1 kmh S 2.7 mph4.3 kmh 30.11 in1019.6 mb 0.00 in0.0 mm 0.00 in0.0 mm 0.00 in0.0 mm
05:34 PM 24.1°F-4.4°C 16.7°F-8.5°C 73% 1.6 mph S2.6 kmh S 2.9 mph4.7 kmh 30.11 in1019.6 mb 0.00 in0.0 mm 0.00 in0.0 mm 0.00 in0.0 mm
05:39 PM 24.1°F-4.4°C 17.1°F-8.3°C 74% 1.1 mph S1.8 kmh S 2.0 mph3.2 kmh 30.11 in1019.6 mb 0.00 in0.0 mm 0.00 in0.0 mm 0.00 in0.0 mm
05:44 PM 24.1°F-4.4°C 16.7°F-8.5°C 73% 2.0 mph SSW3.2 kmh SSW 2.9 mph4.7 kmh 30.10 in1019.3 mb 0.00 in0.0 mm 0.00 in0.0 mm 0.00 in0.0 mm
05:49 PM 24.1°F-4.4°C 16.7°F-8.5°C 73% 2.0 mph S3.2 kmh S 2.7 mph4.3 kmh 30.10 in1019.3 mb 0.00 in0.0 mm 0.00 in0.0 mm 0.00 in0.0 mm
05:54 PM 24.1°F-4.4°C 17.1°F-8.3°C 74% 1.6 mph SSW2.6 kmh SSW 1.8 mph2.9 kmh 30.10 in1019.3 mb 0.00 in0.0 mm 0.00 in0.0 mm 0.00 in0.0 mm
05:59 PM 23.9°F-4.5°C 16.9°F-8.4°C 74% 1.3 mph SE2.1 kmh SE 1.8 mph2.9 kmh 30.10 in1019.3 mb 0.00 in0.0 mm 0.00 in0.0 mm 0.00 in0.0 mm
06:04 PM 24.1°F-4.4°C 17.1°F-8.3°C 74% 1.8 mph S2.9 kmh S 3.1 mph5.0 kmh 30.10 in1019.3 mb 0.00 in0.0 mm 0.00 in0.0 mm 0.00 in0.0 mm
06:09 PM 24.3°F-4.3°C 17.4°F-8.1°C 75% 1.1 mph S1.8 kmh S 1.8 mph2.9 kmh 30.10 in1019.3 mb 0.00 in0.0 mm 0.00 in0.0 mm 0.00 in0.0 mm
06:14 PM 24.3°F-4.3°C 17.2°F-8.2°C 74% 2.0 mph SE3.2 kmh SE 2.7 mph4.3 kmh 30.10 in1019.3 mb 0.00 in0.0 mm 0.00 in0.0 mm 0.00 in0.0 mm
06:19 PM 23.9°F-4.5°C 16.9°F-8.4°C 74% 2.7 mph SE4.3 kmh SE 4.0 mph6.4 kmh 30.10 in1019.3 mb 0.00 in0.0 mm 0.00 in0.0 mm 0.00 in0.0 mm
06:24 PM 23.9°F-4.5°C 17.1°F-8.3°C 75% 1.3 mph SSE2.1 kmh SSE 2.0 mph3.2 kmh 30.10 in1019.3 mb 0.00 in0.0 mm 0.00 in0.0 mm 0.00 in0.0 mm
06:29 PM 23.9°F-4.5°C 17.1°F-8.3°C 75% 2.0 mph S3.2 kmh S 3.1 mph5.0 kmh 30.10 in1019.3 mb 0.00 in0.0 mm 0.00 in0.0 mm 0.00 in0.0 mm
06:34 PM 23.9°F-4.5°C 17.4°F-8.1°C 76% 2.2 mph SSW3.5 kmh SSW 3.8 mph6.1 kmh 30.10 in1019.3 mb 0.00 in0.0 mm 0.00 in0.0 mm 0.00 in0.0 mm
06:39 PM 23.9°F-4.5°C 17.4°F-8.1°C 76% 2.2 mph S3.5 kmh S 3.1 mph5.0 kmh 30.10 in1019.3 mb 0.00 in0.0 mm 0.00 in0.0 mm 0.00 in0.0 mm
06:44 PM 23.9°F-4.5°C 17.4°F-8.1°C 76% 3.6 mph SSW5.8 kmh SSW 5.1 mph8.2 kmh 30.10 in1019.3 mb 0.00 in0.0 mm 0.00 in0.0 mm 0.00 in0.0 mm
06:49 PM 24.1°F-4.4°C 18.1°F-7.7°C 78% 1.6 mph SSE2.6 kmh SSE 2.0 mph3.2 kmh 30.10 in1019.3 mb 0.00 in0.0 mm 0.00 in0.0 mm 0.00 in0.0 mm
06:54 PM 24.1°F-4.4°C 18.1°F-7.7°C 78% 2.9 mph SW4.7 kmh SW 4.5 mph7.2 kmh 30.10 in1019.3 mb 0.00 in0.0 mm 0.00 in0.0 mm 0.00 in0.0 mm
06:59 PM 24.1°F-4.4°C 18.1°F-7.7°C 78% 2.0 mph SSW3.2 kmh SSW 2.9 mph4.7 kmh 30.10 in1019.3 mb 0.00 in0.0 mm 0.00 in0.0 mm 0.00 in0.0 mm
07:04 PM 24.1°F-4.4°C 18.1°F-7.7°C 78% 1.3 mph S2.1 kmh S 2.2 mph3.5 kmh 30.10 in1019.3 mb 0.00 in0.0 mm 0.00 in0.0 mm 0.00 in0.0 mm
07:09 PM 23.9°F-4.5°C 18.3°F-7.6°C 79% 2.7 mph S4.3 kmh S 4.5 mph7.2 kmh 30.10 in1019.3 mb 0.00 in0.0 mm 0.00 in0.0 mm 0.00 in0.0 mm
07:14 PM 24.1°F-4.4°C 18.5°F-7.5°C 79% 1.8 mph S2.9 kmh S 2.2 mph3.5 kmh 30.10 in1019.3 mb 0.00 in0.0 mm 0.00 in0.0 mm 0.00 in0.0 mm
07:19 PM 24.1°F-4.4°C 18.5°F-7.5°C 79% 1.8 mph S2.9 kmh S 3.1 mph5.0 kmh 30.10 in1019.3 mb 0.00 in0.0 mm 0.00 in0.0 mm 0.00 in0.0 mm
07:24 PM 23.9°F-4.5°C 18.3°F-7.6°C 79% 2.2 mph S3.5 kmh S 3.4 mph5.5 kmh 30.10 in1019.3 mb 0.00 in0.0 mm 0.00 in0.0 mm 0.00 in0.0 mm
07:29 PM 24.1°F-4.4°C 18.9°F-7.3°C 80% 1.8 mph SSE2.9 kmh SSE 2.0 mph3.2 kmh 30.10 in1019.3 mb 0.00 in0.0 mm 0.00 in0.0 mm 0.00 in0.0 mm
07:34 PM 24.3°F-4.3°C 19.0°F-7.2°C 80% 1.6 mph S2.6 kmh S 1.8 mph2.9 kmh 30.10 in1019.3 mb 0.00 in0.0 mm 0.00 in0.0 mm 0.00 in0.0 mm
07:39 PM 24.1°F-4.4°C 18.9°F-7.3°C 80% 1.6 mph SSE2.6 kmh SSE 2.7 mph4.3 kmh 30.10 in1019.3 mb 0.00 in0.0 mm 0.00 in0.0 mm 0.00 in0.0 mm
07:44 PM 24.1°F-4.4°C 18.9°F-7.3°C 80% 0.4 mph S0.6 kmh S 1.8 mph2.9 kmh 30.10 in1019.3 mb 0.00 in0.0 mm 0.00 in0.0 mm 0.00 in0.0 mm
07:49 PM 23.9°F-4.5°C 18.7°F-7.4°C 80% Calm Calm -- 30.10 in1019.3 mb 0.00 in0.0 mm 0.00 in0.0 mm 0.00 in0.0 mm
07:54 PM 23.7°F-4.6°C 18.1°F-7.7°C 79% Calm Calm 1.1 mph1.8 kmh 30.10 in1019.3 mb 0.00 in0.0 mm 0.00 in0.0 mm 0.00 in0.0 mm
07:59 PM 23.5°F-4.7°C 18.3°F-7.6°C 80% 0.4 mph SE0.6 kmh SE 1.6 mph2.6 kmh 30.10 in1019.3 mb 0.00 in0.0 mm 0.00 in0.0 mm 0.00 in0.0 mm
08:04 PM 23.5°F-4.7°C 18.3°F-7.6°C 80% 0.9 mph ESE1.4 kmh ESE 1.3 mph2.1 kmh 30.10 in1019.3 mb 0.00 in0.0 mm 0.00 in0.0 mm 0.00 in0.0 mm
08:09 PM 23.7°F-4.6°C 18.5°F-7.5°C 80% 1.8 mph SE2.9 kmh SE 2.0 mph3.2 kmh 30.09 in1019.0 mb 0.00 in0.0 mm 0.00 in0.0 mm 0.00 in0.0 mm
08:14 PM 23.9°F-4.5°C 18.7°F-7.4°C 80% 1.6 mph ESE2.6 kmh ESE 1.6 mph2.6 kmh 30.09 in1019.0 mb 0.00 in0.0 mm 0.00 in0.0 mm 0.00 in0.0 mm
08:19 PM 23.9°F-4.5°C 18.7°F-7.4°C 80% 1.3 mph SE2.1 kmh SE 1.6 mph2.6 kmh 30.09 in1019.0 mb 0.00 in0.0 mm 0.00 in0.0 mm 0.00 in0.0 mm
08:24 PM 23.9°F-4.5°C 18.7°F-7.4°C 80% 1.8 mph SE2.9 kmh SE 1.8 mph2.9 kmh 30.09 in1019.0 mb 0.00 in0.0 mm 0.00 in0.0 mm 0.00 in0.0 mm
08:29 PM 23.9°F-4.5°C 18.7°F-7.4°C 80% 1.6 mph SE2.6 kmh SE 1.8 mph2.9 kmh 30.09 in1019.0 mb 0.00 in0.0 mm 0.00 in0.0 mm 0.00 in0.0 mm
08:34 PM 23.5°F-4.7°C 18.5°F-7.5°C 81% 2.2 mph ESE3.5 kmh ESE 2.5 mph4.0 kmh 30.09 in1019.0 mb 0.00 in0.0 mm 0.00 in0.0 mm 0.00 in0.0 mm
08:39 PM 23.9°F-4.5°C 18.9°F-7.3°C 81% 2.2 mph SE3.5 kmh SE 2.7 mph4.3 kmh 30.09 in1019.0 mb 0.00 in0.0 mm 0.00 in0.0 mm 0.00 in0.0 mm
08:44 PM 23.9°F-4.5°C 18.9°F-7.3°C 81% 1.8 mph SE2.9 kmh SE 2.0 mph3.2 kmh 30.08 in1018.6 mb 0.00 in0.0 mm 0.00 in0.0 mm 0.00 in0.0 mm
08:49 PM 23.0°F-5.0°C 17.8°F-7.9°C 80% 1.8 mph SE2.9 kmh SE 2.0 mph3.2 kmh 30.08 in1018.6 mb 0.00 in0.0 mm 0.00 in0.0 mm 0.00 in0.0 mm
08:54 PM 23.0°F-5.0°C 18.0°F-7.8°C 81% 1.8 mph SE2.9 kmh SE 2.2 mph3.5 kmh 30.08 in1018.6 mb 0.00 in0.0 mm 0.00 in0.0 mm 0.00 in0.0 mm
08:59 PM 23.4°F-4.8°C 18.3°F-7.6°C 81% 2.0 mph SE3.2 kmh SE 2.7 mph4.3 kmh 30.08 in1018.6 mb 0.00 in0.0 mm 0.00 in0.0 mm 0.00 in0.0 mm
09:04 PM 23.5°F-4.7°C 18.5°F-7.5°C 81% 1.1 mph SE1.8 kmh SE 1.3 mph2.1 kmh 30.08 in1018.6 mb 0.00 in0.0 mm 0.00 in0.0 mm 0.00 in0.0 mm
09:09 PM 23.4°F-4.8°C 18.1°F-7.7°C 80% 0.9 mph SSE1.4 kmh SSE 1.1 mph1.8 kmh 30.08 in1018.6 mb 0.00 in0.0 mm 0.00 in0.0 mm 0.00 in0.0 mm
09:14 PM 23.2°F-4.9°C 18.1°F-7.7°C 81% 1.3 mph S2.1 kmh S 1.8 mph2.9 kmh 30.07 in1018.3 mb 0.00 in0.0 mm 0.00 in0.0 mm 0.00 in0.0 mm
09:19 PM 23.2°F-4.9°C 18.9°F-7.3°C 83% 1.6 mph SSE2.6 kmh SSE 1.8 mph2.9 kmh 30.07 in1018.3 mb 0.00 in0.0 mm 0.00 in0.0 mm 0.00 in0.0 mm
09:24 PM 23.4°F-4.8°C 19.0°F-7.2°C 83% 1.3 mph SSE2.1 kmh SSE 1.8 mph2.9 kmh 30.07 in1018.3 mb 0.00 in0.0 mm 0.00 in0.0 mm 0.00 in0.0 mm
09:29 PM 23.4°F-4.8°C 19.0°F-7.2°C 83% 1.6 mph SE2.6 kmh SE 2.0 mph3.2 kmh 30.07 in1018.3 mb 0.00 in0.0 mm 0.00 in0.0 mm 0.00 in0.0 mm
09:34 PM 23.5°F-4.7°C 19.2°F-7.1°C 83% 1.6 mph SE2.6 kmh SE 2.2 mph3.5 kmh 30.06 in1017.9 mb 0.00 in0.0 mm 0.00 in0.0 mm 0.00 in0.0 mm
09:39 PM 23.4°F-4.8°C 19.0°F-7.2°C 83% 2.5 mph SE4.0 kmh SE 3.1 mph5.0 kmh 30.06 in1017.9 mb 0.00 in0.0 mm 0.00 in0.0 mm 0.00 in0.0 mm
09:44 PM 23.0°F-5.0°C 18.7°F-7.4°C 83% 2.2 mph SE3.5 kmh SE 2.9 mph4.7 kmh 30.06 in1017.9 mb 0.00 in0.0 mm 0.00 in0.0 mm 0.00 in0.0 mm
09:49 PM 22.8°F-5.1°C 18.5°F-7.5°C 83% 2.7 mph SE4.3 kmh SE 3.6 mph5.8 kmh 30.05 in1017.6 mb 0.00 in0.0 mm 0.00 in0.0 mm 0.00 in0.0 mm
09:54 PM 23.0°F-5.0°C 18.9°F-7.3°C 84% 2.0 mph SE3.2 kmh SE 2.7 mph4.3 kmh 30.05 in1017.6 mb 0.00 in0.0 mm 0.00 in0.0 mm 0.00 in0.0 mm
09:59 PM 22.8°F-5.1°C 18.5°F-7.5°C 83% 2.5 mph SSE4.0 kmh SSE 3.1 mph5.0 kmh 30.05 in1017.6 mb 0.00 in0.0 mm 0.00 in0.0 mm 0.00 in0.0 mm
10:04 PM 22.8°F-5.1°C 18.7°F-7.4°C 84% 2.7 mph SE4.3 kmh SE 3.6 mph5.8 kmh 30.04 in1017.3 mb 0.00 in0.0 mm 0.00 in0.0 mm 0.00 in0.0 mm
10:09 PM 22.8°F-5.1°C 18.7°F-7.4°C 84% 3.8 mph SE6.1 kmh SE 5.4 mph8.7 kmh 30.04 in1017.3 mb 0.00 in0.0 mm 0.00 in0.0 mm 0.00 in0.0 mm
10:14 PM 23.2°F-4.9°C 19.4°F-7.0°C 85% 2.7 mph SSE4.3 kmh SSE 3.6 mph5.8 kmh 30.04 in1017.3 mb 0.00 in0.0 mm 0.00 in0.0 mm 0.00 in0.0 mm
10:19 PM 23.4°F-4.8°C 19.2°F-7.1°C 84% 3.6 mph SE5.8 kmh SE 4.5 mph7.2 kmh 30.04 in1017.3 mb 0.00 in0.0 mm 0.00 in0.0 mm 0.00 in0.0 mm
10:24 PM 23.4°F-4.8°C 19.2°F-7.1°C 84% 2.9 mph SSE4.7 kmh SSE 3.8 mph6.1 kmh 30.04 in1017.3 mb 0.00 in0.0 mm 0.00 in0.0 mm 0.00 in0.0 mm
10:29 PM 23.4°F-4.8°C 19.2°F-7.1°C 84% 3.8 mph S6.1 kmh S 6.9 mph11.1 kmh 30.03 in1016.9 mb 0.00 in0.0 mm 0.00 in0.0 mm 0.00 in0.0 mm
10:34 PM 23.5°F-4.7°C 19.4°F-7.0°C 84% 4.9 mph S7.9 kmh S 7.8 mph12.6 kmh 30.03 in1016.9 mb 0.00 in0.0 mm 0.00 in0.0 mm 0.00 in0.0 mm
10:39 PM 23.5°F-4.7°C 19.8°F-6.8°C 85% 3.8 mph SSE6.1 kmh SSE 6.0 mph9.7 kmh 30.03 in1016.9 mb 0.00 in0.0 mm 0.00 in0.0 mm 0.00 in0.0 mm
10:44 PM 23.9°F-4.5°C 20.1°F-6.6°C 85% 4.3 mph S6.9 kmh S 8.3 mph13.4 kmh 30.02 in1016.6 mb 0.00 in0.0 mm 0.00 in0.0 mm 0.00 in0.0 mm
10:49 PM 23.9°F-4.5°C 20.1°F-6.6°C 85% 4.0 mph S6.4 kmh S 7.6 mph12.2 kmh 30.02 in1016.6 mb 0.00 in0.0 mm 0.00 in0.0 mm 0.00 in0.0 mm
10:54 PM 24.1°F-4.4°C 20.3°F-6.5°C 85% 4.0 mph SE6.4 kmh SE 6.5 mph10.5 kmh 30.01 in1016.3 mb 0.00 in0.0 mm 0.00 in0.0 mm 0.00 in0.0 mm
10:59 PM 23.9°F-4.5°C 20.1°F-6.6°C 85% 3.4 mph SSE5.5 kmh SSE 5.8 mph9.3 kmh 30.01 in1016.3 mb 0.00 in0.0 mm 0.00 in0.0 mm 0.00 in0.0 mm
11:04 PM 24.1°F-4.4°C 20.3°F-6.5°C 85% 3.6 mph S5.8 kmh S 5.4 mph8.7 kmh 30.01 in1016.3 mb 0.00 in0.0 mm 0.00 in0.0 mm 0.00 in0.0 mm
11:09 PM 24.1°F-4.4°C 20.3°F-6.5°C 85% 6.7 mph S10.8 kmh S 9.4 mph15.1 kmh 30.01 in1016.3 mb 0.00 in0.0 mm 0.00 in0.0 mm 0.00 in0.0 mm
11:14 PM 24.3°F-4.3°C 20.5°F-6.4°C 85% 3.4 mph SSE5.5 kmh SSE 4.3 mph6.9 kmh 30.01 in1016.3 mb 0.00 in0.0 mm 0.00 in0.0 mm 0.00 in0.0 mm
11:19 PM 24.3°F-4.3°C 20.5°F-6.4°C 85% 6.7 mph SSW10.8 kmh SSW 10.5 mph16.9 kmh 30.00 in1015.9 mb 0.00 in0.0 mm 0.00 in0.0 mm 0.00 in0.0 mm
11:24 PM 24.4°F-4.2°C 20.8°F-6.2°C 86% 4.0 mph SE6.4 kmh SE 6.3 mph10.1 kmh 30.00 in1015.9 mb 0.00 in0.0 mm 0.00 in0.0 mm 0.00 in0.0 mm
11:29 PM 24.6°F-4.1°C 20.8°F-6.2°C 85% 4.5 mph SSE7.2 kmh SSE 6.5 mph10.5 kmh 29.99 in1015.6 mb 0.00 in0.0 mm 0.00 in0.0 mm 0.00 in0.0 mm
11:34 PM 24.6°F-4.1°C 20.8°F-6.2°C 85% 4.5 mph SE7.2 kmh SE 7.2 mph11.6 kmh 29.99 in1015.6 mb 0.00 in0.0 mm 0.00 in0.0 mm 0.00 in0.0 mm
11:39 PM 24.6°F-4.1°C 21.0°F-6.1°C 86% 4.9 mph SSE7.9 kmh SSE 8.1 mph13.0 kmh 29.98 in1015.2 mb 0.00 in0.0 mm 0.00 in0.0 mm 0.00 in0.0 mm
11:44 PM 24.8°F-4.0°C 21.2°F-6.0°C 86% 4.0 mph S6.4 kmh S 6.5 mph10.5 kmh 29.98 in1015.2 mb 0.00 in0.0 mm 0.00 in0.0 mm 0.00 in0.0 mm
11:49 PM 25.0°F-3.9°C 21.4°F-5.9°C 86% 5.4 mph SSW8.7 kmh SSW 7.4 mph11.9 kmh 29.98 in1015.2 mb 0.00 in0.0 mm 0.00 in0.0 mm 0.00 in0.0 mm
11:54 PM 25.2°F-3.8°C 21.6°F-5.8°C 86% 3.8 mph S6.1 kmh S 6.5 mph10.5 kmh 29.97 in1014.9 mb 0.00 in0.0 mm 0.00 in0.0 mm 0.00 in0.0 mm
11:59 PM 25.2°F-3.8°C 22.1°F-5.5°C 88% 5.4 mph S8.7 kmh S 8.1 mph13.0 kmh 29.96 in1014.6 mb 0.00 in0.0 mm 0.00 in0.0 mm 0.00 in0.0 mm